createdAt,value
2017-11-11T00:00:18.788Z,1009.62
2017-11-11T00:01:27.618Z,1009.61
2017-11-11T00:02:36.438Z,1009.66
2017-11-11T00:03:45.264Z,1009.7
2017-11-11T00:04:54.435Z,1009.77
2017-11-11T00:06:03.265Z,1009.73
2017-11-11T00:07:12.141Z,1009.68
2017-11-11T00:08:20.965Z,1009.66
2017-11-11T00:09:29.792Z,1009.67
2017-11-11T00:10:38.617Z,1009.71
2017-11-11T00:11:47.444Z,1009.72
2017-11-11T00:12:56.332Z,1009.72
2017-11-11T00:14:05.147Z,1009.75
2017-11-11T00:15:14.666Z,1009.68
2017-11-11T00:16:23.497Z,1009.71
2017-11-11T00:17:32.318Z,1009.72
2017-11-11T00:18:41.395Z,1009.85
2017-11-11T00:19:50.219Z,1009.82
2017-11-11T00:20:59.044Z,1009.82
2017-11-11T00:22:07.872Z,1009.83
2017-11-11T00:23:16.695Z,1009.81
2017-11-11T00:24:25.620Z,1009.79
2017-11-11T00:25:34.445Z,1009.81
2017-11-11T00:26:43.269Z,1009.82
2017-11-11T00:27:52.441Z,1009.82
2017-11-11T00:29:01.266Z,1009.78
2017-11-11T00:30:10.242Z,1009.73
2017-11-11T00:31:19.414Z,1009.73
2017-11-11T00:32:28.585Z,1009.58
2017-11-11T00:33:37.410Z,1009.44
2017-11-11T00:34:46.234Z,1009.41
2017-11-11T00:35:55.057Z,1009.31
2017-11-11T00:37:03.882Z,1009.31
2017-11-11T00:38:12.706Z,1009.31
2017-11-11T00:39:21.534Z,1009.27
2017-11-11T00:40:30.359Z,1009.31
2017-11-11T00:41:39.534Z,1009.34
2017-11-11T00:42:48.358Z,1009.34
2017-11-11T00:43:57.187Z,1009.35
2017-11-11T00:45:06.012Z,1009.35
2017-11-11T00:46:14.840Z,1009.37
2017-11-11T00:47:23.817Z,1009.28
2017-11-11T00:48:32.643Z,1009.34
2017-11-11T00:49:41.469Z,1009.36
2017-11-11T00:50:50.297Z,1009.38
2017-11-11T00:51:59.122Z,1009.38
2017-11-11T00:53:07.999Z,1009.36
2017-11-11T00:54:16.825Z,1009.42
2017-11-11T00:55:25.650Z,1009.46
2017-11-11T00:56:34.577Z,1009.43
2017-11-11T00:57:43.403Z,1009.43
2017-11-11T00:58:52.481Z,1009.51
2017-11-11T01:00:01.302Z,1009.49
2017-11-11T01:01:10.124Z,1009.48
2017-11-11T01:02:18.950Z,1009.55
2017-11-11T01:03:27.777Z,1009.54
2017-11-11T01:04:36.603Z,1009.49
2017-11-11T01:05:45.428Z,1009.49
2017-11-11T01:06:54.253Z,1009.5
2017-11-11T01:08:03.079Z,1009.47
2017-11-11T01:09:12.246Z,1009.49
2017-11-11T01:10:21.320Z,1009.36
2017-11-11T01:11:30.146Z,1009.37
2017-11-11T01:12:39.320Z,1009.39
2017-11-11T01:13:48.145Z,1009.4
2017-11-11T01:14:56.967Z,1009.36
2017-11-11T01:16:05.798Z,1009.37
2017-11-11T01:17:14.619Z,1009.37
2017-11-11T01:18:23.443Z,1009.37
2017-11-11T01:19:32.268Z,1009.4
2017-11-11T01:20:41.094Z,1009.39
2017-11-11T01:21:50.069Z,1009.47
2017-11-11T01:22:58.895Z,1009.44
2017-11-11T01:24:07.726Z,1009.41
2017-11-11T01:25:16.561Z,1009.4
2017-11-11T01:26:25.387Z,1009.32
2017-11-11T01:27:34.361Z,1009.42
2017-11-11T01:28:43.190Z,1009.39
2017-11-11T01:29:52.014Z,1009.24
2017-11-11T01:31:00.839Z,1009.26
2017-11-11T01:32:09.665Z,1009.15
2017-11-11T01:33:18.738Z,1009.15
2017-11-11T01:34:27.565Z,1009.15
2017-11-11T01:35:36.397Z,1009.04
2017-11-11T01:36:45.573Z,1009.1
2017-11-11T01:37:54.394Z,1009.05
2017-11-11T01:39:03.323Z,1009.03
2017-11-11T01:40:12.148Z,1009.03
2017-11-11T01:41:20.973Z,1009.12
2017-11-11T01:42:29.800Z,1009.19
2017-11-11T01:43:38.968Z,1009.32
2017-11-11T01:44:47.794Z,1009.36
2017-11-11T01:45:56.621Z,1009.52
2017-11-11T01:47:05.444Z,1009.56
2017-11-11T01:48:14.625Z,1009.54
2017-11-11T01:49:23.450Z,1009.69
2017-11-11T01:50:32.381Z,1009.71
2017-11-11T01:51:41.205Z,1009.68
2017-11-11T01:52:50.387Z,1009.66
2017-11-11T01:53:59.212Z,1009.65
2017-11-11T01:55:08.038Z,1009.61
2017-11-11T01:56:16.865Z,1009.63
2017-11-11T01:57:25.690Z,1009.64
2017-11-11T01:58:34.514Z,1009.66
2017-11-11T01:59:43.340Z,1009.59
2017-11-11T02:00:52.164Z,1009.33
2017-11-11T02:02:01.139Z,1009.27
2017-11-11T02:03:10.312Z,1009.3
2017-11-11T02:04:19.136Z,1009.24
2017-11-11T02:05:27.966Z,1009.18
2017-11-11T02:06:36.790Z,1009.11
2017-11-11T02:07:45.723Z,1009.06
2017-11-11T02:08:54.539Z,1008.98
2017-11-11T02:10:03.364Z,1008.9
2017-11-11T02:11:12.189Z,1008.87
2017-11-11T02:12:21.013Z,1008.86
2017-11-11T02:13:30.141Z,1008.84
2017-11-11T02:14:38.964Z,1008.78
2017-11-11T02:15:47.789Z,1008.8
2017-11-11T02:16:56.614Z,1008.75
2017-11-11T02:18:06.145Z,1008.77
2017-11-11T02:19:14.979Z,1008.72
2017-11-11T02:20:23.782Z,1008.73
2017-11-11T02:21:32.605Z,1008.67
2017-11-11T02:22:41.779Z,1008.63
2017-11-11T02:23:50.606Z,1008.63
2017-11-11T02:24:59.528Z,1008.65
2017-11-11T02:26:08.355Z,1008.61
2017-11-11T02:27:17.179Z,1008.63
2017-11-11T02:28:26.003Z,1008.58
2017-11-11T02:29:34.830Z,1008.58
2017-11-11T02:30:43.656Z,1008.62
2017-11-11T02:31:52.837Z,1008.6
2017-11-11T02:33:01.664Z,1008.58
2017-11-11T02:34:10.489Z,1008.55
2017-11-11T02:35:19.312Z,1008.59
2017-11-11T02:36:28.633Z,1008.58
2017-11-11T02:37:37.458Z,1008.54
2017-11-11T02:38:46.283Z,1008.57
2017-11-11T02:39:55.113Z,1008.54
2017-11-11T02:41:03.977Z,1008.54
2017-11-11T02:42:12.766Z,1008.45
2017-11-11T02:43:21.590Z,1008.51
2017-11-11T02:44:30.417Z,1008.47
2017-11-11T02:45:39.241Z,1008.5
2017-11-11T02:46:48.065Z,1008.48
2017-11-11T02:47:57.089Z,1008.44
2017-11-11T02:49:05.914Z,1008.51
2017-11-11T02:50:14.741Z,1008.48
2017-11-11T02:51:23.569Z,1008.49
2017-11-11T02:52:32.390Z,1008.47
2017-11-11T02:53:41.214Z,1008.54
2017-11-11T02:54:50.040Z,1008.46
2017-11-11T02:55:58.865Z,1008.36
2017-11-11T02:57:07.695Z,1008.49
2017-11-11T02:58:16.523Z,1008.51
2017-11-11T02:59:25.443Z,1008.49
2017-11-11T03:00:34.620Z,1008.49
2017-11-11T03:01:43.446Z,1008.49
2017-11-11T03:02:52.270Z,1008.41
2017-11-11T03:04:01.092Z,1008.42
2017-11-11T03:05:10.222Z,1008.44
2017-11-11T03:06:19.047Z,1008.38
2017-11-11T03:07:28.214Z,1008.37
2017-11-11T03:08:37.394Z,1008.35
2017-11-11T03:09:46.215Z,1008.39
2017-11-11T03:10:55.041Z,1008.42
2017-11-11T03:12:03.867Z,1008.41
2017-11-11T03:13:12.693Z,1008.43
2017-11-11T03:14:21.519Z,1008.41
2017-11-11T03:15:30.345Z,1008.39
2017-11-11T03:16:39.269Z,1008.39
2017-11-11T03:17:48.438Z,1008.39
2017-11-11T03:18:57.266Z,1008.38
2017-11-11T03:20:06.093Z,1008.34
2017-11-11T03:21:14.924Z,1008.36
2017-11-11T03:22:24.050Z,1008.34
2017-11-11T03:23:32.877Z,1008.4
2017-11-11T03:24:42.039Z,1008.31
2017-11-11T03:25:50.864Z,1008.34
2017-11-11T03:27:00.040Z,1008.31
2017-11-11T03:28:09.267Z,1008.29
2017-11-11T03:29:18.092Z,1008.31
2017-11-11T03:30:26.923Z,1008.31
2017-11-11T03:31:36.464Z,1008.27
2017-11-11T03:32:45.290Z,1008.24
2017-11-11T03:33:54.366Z,1008.26
2017-11-11T03:35:03.195Z,1008.32
2017-11-11T03:36:12.021Z,1008.26
2017-11-11T03:37:20.846Z,1008.21
2017-11-11T03:38:29.673Z,1008.23
2017-11-11T03:39:38.650Z,1008.26
2017-11-11T03:40:47.478Z,1008.26
2017-11-11T03:41:56.302Z,1008.16
2017-11-11T03:43:05.126Z,1008.19
2017-11-11T03:44:13.950Z,1008.19
2017-11-11T03:45:23.128Z,1008.12
2017-11-11T03:46:31.955Z,1008.15
2017-11-11T03:47:40.778Z,1008.07
2017-11-11T03:48:49.603Z,1008.13
2017-11-11T03:49:58.426Z,1008.09
2017-11-11T03:51:07.705Z,1008.09
2017-11-11T03:52:16.529Z,1008.08
2017-11-11T03:53:25.353Z,1008.08
2017-11-11T03:54:34.177Z,1008.14
2017-11-11T03:55:43.002Z,1008.16
2017-11-11T03:56:51.829Z,1008.03
2017-11-11T03:58:01.007Z,1008.04
2017-11-11T03:59:09.834Z,1008.04
2017-11-11T04:00:18.659Z,1007.99
2017-11-11T04:01:27.485Z,1007.95
2017-11-11T04:02:36.611Z,1007.98
2017-11-11T04:03:45.434Z,1008
2017-11-11T04:04:54.259Z,1007.91
2017-11-11T04:06:03.430Z,1007.94
2017-11-11T04:07:12.256Z,1007.98
2017-11-11T04:08:21.082Z,1007.95
2017-11-11T04:09:29.905Z,1007.97
2017-11-11T04:10:38.731Z,1007.95
2017-11-11T04:11:47.557Z,1007.98
2017-11-11T04:12:56.383Z,1008.01
2017-11-11T04:14:05.210Z,1007.94
2017-11-11T04:15:14.033Z,1007.91
2017-11-11T04:16:22.860Z,1007.99
2017-11-11T04:17:31.685Z,1007.93
2017-11-11T04:18:40.510Z,1007.98
2017-11-11T04:19:49.336Z,1007.92
2017-11-11T04:20:58.519Z,1007.94
2017-11-11T04:22:07.342Z,1007.95
2017-11-11T04:23:16.167Z,1008.01
2017-11-11T04:24:24.995Z,1007.99
2017-11-11T04:25:34.212Z,1008.02
2017-11-11T04:26:43.042Z,1008.04
2017-11-11T04:27:51.870Z,1008.01
2017-11-11T04:29:00.705Z,1007.99
2017-11-11T04:30:09.520Z,1007.96
2017-11-11T04:31:18.493Z,1007.96
2017-11-11T04:32:27.317Z,1007.94
2017-11-11T04:33:36.142Z,1007.91
2017-11-11T04:34:44.967Z,1007.91
2017-11-11T04:35:53.791Z,1007.83
2017-11-11T04:37:02.716Z,1007.92
2017-11-11T04:38:11.890Z,1007.82
2017-11-11T04:39:20.714Z,1007.81
2017-11-11T04:40:29.539Z,1007.87
2017-11-11T04:41:38.363Z,1007.84
2017-11-11T04:42:47.241Z,1007.91
2017-11-11T04:43:56.067Z,1007.82
2017-11-11T04:45:04.891Z,1007.91
2017-11-11T04:46:13.722Z,1007.88
2017-11-11T04:47:22.543Z,1007.86
2017-11-11T04:48:31.366Z,1007.78
2017-11-11T04:49:40.190Z,1007.74
2017-11-11T04:50:49.016Z,1007.7
2017-11-11T04:51:57.840Z,1007.69
2017-11-11T04:53:06.667Z,1007.75
2017-11-11T04:54:15.489Z,1007.76
2017-11-11T04:55:24.316Z,1007.72
2017-11-11T04:56:33.139Z,1007.75
2017-11-11T04:57:41.966Z,1007.72
2017-11-11T04:58:50.790Z,1007.75
2017-11-11T04:59:59.916Z,1007.78
2017-11-11T05:01:08.741Z,1007.74
2017-11-11T05:02:17.566Z,1007.66
2017-11-11T05:03:26.391Z,1007.69
2017-11-11T05:04:35.266Z,1007.66
2017-11-11T05:05:44.091Z,1007.64
2017-11-11T05:06:52.915Z,1007.68
2017-11-11T05:08:01.741Z,1007.68
2017-11-11T05:09:10.918Z,1007.73
2017-11-11T05:10:19.761Z,1007.69
2017-11-11T05:11:28.871Z,1007.68
2017-11-11T05:12:37.693Z,1007.69
2017-11-11T05:13:46.519Z,1007.63
2017-11-11T05:14:55.344Z,1007.67
2017-11-11T05:16:04.515Z,1007.66
2017-11-11T05:17:13.492Z,1007.64
2017-11-11T05:18:22.319Z,1007.63
2017-11-11T05:19:31.142Z,1007.66
2017-11-11T05:20:39.969Z,1007.66
2017-11-11T05:21:48.797Z,1007.65
2017-11-11T05:22:57.872Z,1007.63
2017-11-11T05:24:06.696Z,1007.62
2017-11-11T05:25:15.519Z,1007.65
2017-11-11T05:26:24.348Z,1007.63
2017-11-11T05:27:33.180Z,1007.7
2017-11-11T05:28:42.147Z,1007.73
2017-11-11T05:29:50.974Z,1007.7
2017-11-11T05:30:59.801Z,1007.65
2017-11-11T05:32:08.627Z,1007.69
2017-11-11T05:33:17.455Z,1007.67
2017-11-11T05:34:26.281Z,1007.58
2017-11-11T05:35:35.114Z,1007.61
2017-11-11T05:36:44.279Z,1007.6
2017-11-11T05:37:53.104Z,1007.55
2017-11-11T05:39:01.930Z,1007.52
2017-11-11T05:40:11.405Z,1007.57
2017-11-11T05:41:20.228Z,1007.56
2017-11-11T05:42:29.052Z,1007.55
2017-11-11T05:43:37.881Z,1007.56
2017-11-11T05:44:47.051Z,1007.58
2017-11-11T05:45:55.977Z,1007.56
2017-11-11T05:47:04.800Z,1007.6
2017-11-11T05:48:13.625Z,1007.6
2017-11-11T05:49:22.450Z,1007.59
2017-11-11T05:50:31.277Z,1007.61
2017-11-11T05:51:40.254Z,1007.59
2017-11-11T05:52:49.079Z,1007.67
2017-11-11T05:53:57.908Z,1007.67
2017-11-11T05:55:06.736Z,1007.68
2017-11-11T05:56:15.561Z,1007.7
2017-11-11T05:57:24.536Z,1007.6
2017-11-11T05:58:33.359Z,1007.63
2017-11-11T05:59:42.187Z,1007.69
2017-11-11T06:00:51.361Z,1007.66
2017-11-11T06:02:00.187Z,1007.59
2017-11-11T06:03:09.010Z,1007.61
2017-11-11T06:04:18.191Z,1007.63
2017-11-11T06:05:27.016Z,1007.62
2017-11-11T06:06:35.853Z,1007.62
2017-11-11T06:07:44.682Z,1007.66
2017-11-11T06:08:54.004Z,1007.68
2017-11-11T06:10:02.831Z,1007.6
2017-11-11T06:11:11.661Z,1007.67
2017-11-11T06:12:20.489Z,1007.69
2017-11-11T06:13:29.311Z,1007.64
2017-11-11T06:14:38.192Z,1007.57
2017-11-11T06:15:47.019Z,1007.57
2017-11-11T06:16:55.848Z,1007.47
2017-11-11T06:18:04.675Z,1007.42
2017-11-11T06:19:13.853Z,1007.38
2017-11-11T06:20:22.679Z,1007.39
2017-11-11T06:21:31.506Z,1007.4
2017-11-11T06:22:40.331Z,1007.45
2017-11-11T06:23:49.157Z,1007.46
2017-11-11T06:24:57.985Z,1007.51
2017-11-11T06:26:07.060Z,1007.44
2017-11-11T06:27:15.907Z,1007.48
2017-11-11T06:28:25.077Z,1007.44
2017-11-11T06:29:33.935Z,1007.44
2017-11-11T06:30:42.765Z,1007.38
2017-11-11T06:31:51.591Z,1007.39
2017-11-11T06:33:00.417Z,1007.43
2017-11-11T06:34:09.592Z,1007.34
2017-11-11T06:35:18.419Z,1007.34
2017-11-11T06:36:27.245Z,1007.33
2017-11-11T06:37:36.320Z,1007.3
2017-11-11T06:38:45.144Z,1007.3
2017-11-11T06:39:54.002Z,1007.27
2017-11-11T06:41:02.797Z,1007.28
2017-11-11T06:42:11.978Z,1007.27
2017-11-11T06:43:20.806Z,1007.25
2017-11-11T06:44:29.632Z,1007.29
2017-11-11T06:45:38.807Z,1007.23
2017-11-11T06:46:47.635Z,1007.24
2017-11-11T06:47:56.464Z,1007.24
2017-11-11T06:49:05.440Z,1007.15
2017-11-11T06:50:14.268Z,1007.21
2017-11-11T06:51:23.451Z,1007.27
2017-11-11T06:52:32.278Z,1007.34
2017-11-11T06:53:41.450Z,1007.38
2017-11-11T06:54:50.382Z,1007.35
2017-11-11T06:55:59.203Z,1007.41
2017-11-11T06:57:08.029Z,1007.36
2017-11-11T06:58:16.855Z,1007.35
2017-11-11T06:59:26.029Z,1007.35
2017-11-11T07:00:34.909Z,1007.37
2017-11-11T07:01:43.737Z,1007.37
2017-11-11T07:02:52.561Z,1007.4
2017-11-11T07:04:01.394Z,1007.43
2017-11-11T07:05:10.574Z,1007.36
2017-11-11T07:06:19.400Z,1007.35
2017-11-11T07:07:28.228Z,1007.36
2017-11-11T07:08:37.054Z,1007.34
2017-11-11T07:09:45.881Z,1007.32
2017-11-11T07:10:55.053Z,1007.35
2017-11-11T07:12:04.178Z,1007.37
2017-11-11T07:13:13.010Z,1007.32
2017-11-11T07:14:21.833Z,1007.34
2017-11-11T07:15:31.010Z,1007.3
2017-11-11T07:16:40.179Z,1007.24
2017-11-11T07:17:49.257Z,1007.27
2017-11-11T07:18:58.083Z,1007.27
2017-11-11T07:20:06.909Z,1007.26
2017-11-11T07:21:15.736Z,1007.28
2017-11-11T07:22:24.563Z,1007.28
2017-11-11T07:23:33.494Z,1007.25
2017-11-11T07:24:42.318Z,1007.21
2017-11-11T07:25:51.145Z,1007.2
2017-11-11T07:26:59.973Z,1007.22
2017-11-11T07:28:08.801Z,1007.22
2017-11-11T07:29:17.739Z,1007.27
2017-11-11T07:30:26.563Z,1007.29
2017-11-11T07:31:35.426Z,1007.3
2017-11-11T07:32:44.222Z,1007.24
2017-11-11T07:33:53.047Z,1007.32
2017-11-11T07:35:01.973Z,1007.33
2017-11-11T07:36:10.804Z,1007.3
2017-11-11T07:37:19.633Z,1007.24
2017-11-11T07:38:28.458Z,1007.31
2017-11-11T07:39:37.285Z,1007.28
2017-11-11T07:40:46.410Z,1007.24
2017-11-11T07:41:55.244Z,1007.25
2017-11-11T07:43:04.071Z,1007.24
2017-11-11T07:44:13.243Z,1007.24
2017-11-11T07:45:22.072Z,1007.23
2017-11-11T07:46:31.048Z,1007.29
2017-11-11T07:47:39.876Z,1007.23
2017-11-11T07:48:48.704Z,1007.3
2017-11-11T07:49:57.535Z,1007.27
2017-11-11T07:51:06.362Z,1007.22
2017-11-11T07:52:15.238Z,1007.22
2017-11-11T07:53:24.064Z,1007.22
2017-11-11T07:54:32.894Z,1007.28
2017-11-11T07:55:42.066Z,1007.17
2017-11-11T07:56:50.899Z,1007.14
2017-11-11T07:57:59.930Z,1007.15
2017-11-11T07:59:08.755Z,1007.05
2017-11-11T08:00:17.584Z,1007.08
2017-11-11T08:01:26.414Z,1007.01
2017-11-11T08:02:35.240Z,1006.98
2017-11-11T08:03:44.070Z,1006.99
2017-11-11T08:04:53.600Z,1006.95
2017-11-11T08:06:02.431Z,1006.9
2017-11-11T08:07:11.259Z,1006.86
2017-11-11T08:08:20.447Z,1006.92
2017-11-11T08:09:29.713Z,1006.86
2017-11-11T08:10:38.542Z,1006.8
2017-11-11T08:11:47.365Z,1006.85
2017-11-11T08:12:56.197Z,1006.85
2017-11-11T08:14:05.035Z,1006.86
2017-11-11T08:15:14.309Z,1006.86
2017-11-11T08:16:23.137Z,1006.86
2017-11-11T08:17:31.962Z,1006.91
2017-11-11T08:18:40.791Z,1006.94
2017-11-11T08:19:49.622Z,1006.95
2017-11-11T08:20:58.554Z,1006.96
2017-11-11T08:22:07.382Z,1006.98
2017-11-11T08:23:16.210Z,1006.93
2017-11-11T08:24:25.039Z,1006.95
2017-11-11T08:25:33.880Z,1006.97
2017-11-11T08:26:42.946Z,1006.94
2017-11-11T08:27:51.772Z,1007.01
2017-11-11T08:29:00.599Z,1007.03
2017-11-11T08:30:09.426Z,1007.02
2017-11-11T08:31:18.256Z,1006.99
2017-11-11T08:32:27.230Z,1006.99
2017-11-11T08:33:36.058Z,1007
2017-11-11T08:34:44.885Z,1007.06
2017-11-11T08:35:54.059Z,1007.04
2017-11-11T08:37:03.230Z,1006.95
2017-11-11T08:38:12.409Z,1007.01
2017-11-11T08:39:21.235Z,1006.99
2017-11-11T08:40:30.065Z,1006.95
2017-11-11T08:41:38.921Z,1006.95
2017-11-11T08:42:47.718Z,1006.94
2017-11-11T08:43:56.695Z,1006.93
2017-11-11T08:45:05.867Z,1006.93
2017-11-11T08:46:15.118Z,1006.91
2017-11-11T08:47:24.295Z,1006.96
2017-11-11T08:48:33.123Z,1006.89
2017-11-11T08:49:42.056Z,1006.83
2017-11-11T08:50:51.228Z,1006.88
2017-11-11T08:52:00.053Z,1006.87
2017-11-11T08:53:08.882Z,1006.81
2017-11-11T08:54:17.709Z,1006.8
2017-11-11T08:55:26.687Z,1006.74
2017-11-11T08:56:35.516Z,1006.78
2017-11-11T08:57:44.686Z,1006.75
2017-11-11T08:58:53.515Z,1006.73
2017-11-11T09:00:02.354Z,1006.69
2017-11-11T09:01:11.575Z,1006.61
2017-11-11T09:02:20.404Z,1006.57
2017-11-11T09:03:29.231Z,1006.6
2017-11-11T09:04:38.061Z,1006.58
2017-11-11T09:05:46.894Z,1006.53
2017-11-11T09:06:55.717Z,1006.52
2017-11-11T09:08:04.892Z,1006.54
2017-11-11T09:09:13.720Z,1006.5
2017-11-11T09:10:22.649Z,1006.49
2017-11-11T09:11:31.477Z,1006.48
2017-11-11T09:12:40.456Z,1006.5
2017-11-11T09:13:49.632Z,1006.5
2017-11-11T09:14:58.802Z,1006.4
2017-11-11T09:16:07.629Z,1006.43
2017-11-11T09:17:16.804Z,1006.4
2017-11-11T09:18:25.731Z,1006.43
2017-11-11T09:19:34.563Z,1006.42
2017-11-11T09:20:43.393Z,1006.42
2017-11-11T09:21:52.221Z,1006.41
2017-11-11T09:23:01.048Z,1006.36
2017-11-11T09:24:10.026Z,1006.39
2017-11-11T09:25:19.232Z,1006.35
2017-11-11T09:26:28.398Z,1006.38
2017-11-11T09:27:37.225Z,1006.39
2017-11-11T09:28:46.062Z,1006.35
2017-11-11T09:29:55.279Z,1006.4
2017-11-11T09:31:04.112Z,1006.32
2017-11-11T09:32:12.940Z,1006.4
2017-11-11T09:33:21.767Z,1006.36
2017-11-11T09:34:30.596Z,1006.33
2017-11-11T09:35:39.575Z,1006.37
2017-11-11T09:36:48.403Z,1006.3
2017-11-11T09:37:57.233Z,1006.32
2017-11-11T09:39:06.067Z,1006.28
2017-11-11T09:40:15.249Z,1006.36
2017-11-11T09:41:24.228Z,1006.37
2017-11-11T09:42:33.056Z,1006.33
2017-11-11T09:43:41.886Z,1006.31
2017-11-11T09:44:50.722Z,1006.35
2017-11-11T09:45:59.543Z,1006.4
2017-11-11T09:47:08.777Z,1006.41
2017-11-11T09:48:17.600Z,1006.49
2017-11-11T09:49:26.432Z,1006.42
2017-11-11T09:50:35.262Z,1006.4
2017-11-11T09:51:44.090Z,1006.48
2017-11-11T09:52:53.269Z,1006.45
2017-11-11T09:54:02.096Z,1006.55
2017-11-11T09:55:10.926Z,1006.43
2017-11-11T09:56:20.111Z,1006.5
2017-11-11T09:57:28.932Z,1006.49
2017-11-11T09:58:38.012Z,1006.35
2017-11-11T09:59:46.836Z,1006.32
2017-11-11T10:00:55.663Z,1006.26
2017-11-11T10:02:04.493Z,1006.27
2017-11-11T10:03:13.320Z,1006.19
2017-11-11T10:04:22.500Z,1006.23
2017-11-11T10:05:31.323Z,1006.21
2017-11-11T10:06:40.152Z,1006.25
2017-11-11T10:07:48.980Z,1006.25
2017-11-11T10:08:58.148Z,1006.25
2017-11-11T10:10:07.670Z,1006.24
2017-11-11T10:11:16.493Z,1006.23
2017-11-11T10:12:25.322Z,1006.19
2017-11-11T10:13:34.154Z,1006.15
2017-11-11T10:14:42.980Z,1006.11
2017-11-11T10:15:51.808Z,1006.06
2017-11-11T10:17:00.635Z,1006.06
2017-11-11T10:18:09.461Z,1006.01
2017-11-11T10:19:18.290Z,1005.99
2017-11-11T10:20:27.119Z,1005.97
2017-11-11T10:21:35.948Z,1005.93
2017-11-11T10:22:44.775Z,1005.83
2017-11-11T10:23:53.604Z,1005.89
2017-11-11T10:25:02.432Z,1005.93
2017-11-11T10:26:11.604Z,1005.89
2017-11-11T10:27:20.433Z,1005.88
2017-11-11T10:28:29.260Z,1005.89
2017-11-11T10:29:38.087Z,1005.93
2017-11-11T10:30:47.261Z,1005.9
2017-11-11T10:31:56.089Z,1005.84
2017-11-11T10:33:04.968Z,1005.85
2017-11-11T10:34:13.796Z,1005.88
2017-11-11T10:35:22.625Z,1005.87
2017-11-11T10:36:31.454Z,1005.85
2017-11-11T10:37:40.283Z,1005.82
2017-11-11T10:38:49.113Z,1005.84
2017-11-11T10:39:57.951Z,1005.78
2017-11-11T10:41:06.776Z,1005.74
2017-11-11T10:42:15.606Z,1005.75
2017-11-11T10:43:24.435Z,1005.73
2017-11-11T10:44:33.410Z,1005.67
2017-11-11T10:45:42.246Z,1005.65
2017-11-11T10:46:51.072Z,1005.66
2017-11-11T10:47:59.901Z,1005.59
2017-11-11T10:49:08.729Z,1005.61
2017-11-11T10:50:17.708Z,1005.6
2017-11-11T10:51:26.539Z,1005.63
2017-11-11T10:52:35.365Z,1005.54
2017-11-11T10:53:44.193Z,1005.6
2017-11-11T10:54:53.023Z,1005.58
2017-11-11T10:56:01.953Z,1005.62
2017-11-11T10:57:10.783Z,1005.61
2017-11-11T10:58:19.611Z,1005.62
2017-11-11T10:59:28.443Z,1005.6
2017-11-11T11:00:37.270Z,1005.64
2017-11-11T11:01:46.149Z,1005.62
2017-11-11T11:02:54.980Z,1005.66
2017-11-11T11:04:03.809Z,1005.64
2017-11-11T11:05:12.636Z,1005.67
2017-11-11T11:06:21.468Z,1005.61
2017-11-11T11:07:30.297Z,1005.56
2017-11-11T11:08:39.127Z,1005.5
2017-11-11T11:09:47.963Z,1005.51
2017-11-11T11:10:56.791Z,1005.56
2017-11-11T11:12:05.620Z,1005.44
2017-11-11T11:13:14.602Z,1005.52
2017-11-11T11:14:24.122Z,1005.5
2017-11-11T11:15:32.950Z,1005.53
2017-11-11T11:16:41.785Z,1005.52
2017-11-11T11:17:50.953Z,1005.44
2017-11-11T11:18:59.930Z,1005.48
2017-11-11T11:20:08.761Z,1005.39
2017-11-11T11:21:17.588Z,1005.4
2017-11-11T11:22:26.416Z,1005.36
2017-11-11T11:23:35.245Z,1005.41
2017-11-11T11:24:44.128Z,1005.4
2017-11-11T11:25:52.957Z,1005.36
2017-11-11T11:27:01.787Z,1005.34
2017-11-11T11:28:10.968Z,1005.37
2017-11-11T11:29:19.797Z,1005.39
2017-11-11T11:30:28.971Z,1005.34
2017-11-11T11:31:37.759Z,1005.37
2017-11-11T11:32:46.618Z,1005.35
2017-11-11T11:33:55.793Z,1005.27
2017-11-11T11:35:04.626Z,1005.38
2017-11-11T11:36:13.808Z,1005.35
2017-11-11T11:37:22.647Z,1005.32
2017-11-11T11:38:31.486Z,1005.33
2017-11-11T11:39:40.325Z,1005.35
2017-11-11T11:40:49.162Z,1005.37
2017-11-11T11:41:58.053Z,1005.32
2017-11-11T11:43:06.896Z,1005.34
2017-11-11T11:44:15.766Z,1005.33
2017-11-11T11:45:24.574Z,1005.37
2017-11-11T11:46:33.422Z,1005.35
2017-11-11T11:47:42.413Z,1005.38
2017-11-11T11:48:51.254Z,1005.36
2017-11-11T11:50:00.091Z,1005.42
2017-11-11T11:51:08.922Z,1005.43
2017-11-11T11:52:17.751Z,1005.35
2017-11-11T11:53:26.686Z,1005.36
2017-11-11T11:54:35.865Z,1005.35
2017-11-11T11:55:44.695Z,1005.33
2017-11-11T11:56:53.523Z,1005.29
2017-11-11T11:58:02.352Z,1005.31
2017-11-11T11:59:11.936Z,1005.25
2017-11-11T12:00:20.765Z,1005.26
2017-11-11T12:01:29.593Z,1005.25
2017-11-11T12:02:38.769Z,1005.25
2017-11-11T12:03:47.597Z,1005.16
2017-11-11T12:04:56.629Z,1005.16
2017-11-11T12:06:05.461Z,1005.15
2017-11-11T12:07:14.290Z,1005.15
2017-11-11T12:08:23.118Z,1005.12
2017-11-11T12:09:31.946Z,1005.13
2017-11-11T12:10:40.776Z,1005.18
2017-11-11T12:11:49.946Z,1005.18
2017-11-11T12:12:58.775Z,1005.19
2017-11-11T12:14:07.604Z,1005.17
2017-11-11T12:15:16.437Z,1005.22
2017-11-11T12:16:25.316Z,1005.18
2017-11-11T12:17:34.196Z,1005.18
2017-11-11T12:18:42.976Z,1005.15
2017-11-11T12:19:51.806Z,1005.13
2017-11-11T12:21:00.634Z,1005.11
2017-11-11T12:22:09.563Z,1005.13
2017-11-11T12:23:18.393Z,1005.14
2017-11-11T12:24:27.221Z,1005.08
2017-11-11T12:25:36.409Z,1005.1
2017-11-11T12:26:45.587Z,1005.15
2017-11-11T12:27:54.565Z,1005.15
2017-11-11T12:29:03.395Z,1005.11
2017-11-11T12:30:12.225Z,1005.13
2017-11-11T12:31:21.053Z,1005.07
2017-11-11T12:32:29.885Z,1005.04
2017-11-11T12:33:38.813Z,1005.05
2017-11-11T12:34:47.641Z,1005.03
2017-11-11T12:35:56.473Z,1005
2017-11-11T12:37:05.304Z,1005
2017-11-11T12:38:14.130Z,1004.95
2017-11-11T12:39:23.068Z,1004.93
2017-11-11T12:40:31.894Z,1004.9
2017-11-11T12:41:40.722Z,1004.88
2017-11-11T12:42:49.556Z,1004.97
2017-11-11T12:43:58.736Z,1004.9
2017-11-11T12:45:07.817Z,1004.94
2017-11-11T12:46:16.647Z,1004.9
2017-11-11T12:47:25.479Z,1004.86
2017-11-11T12:48:34.307Z,1004.87
2017-11-11T12:49:43.137Z,1004.87
2017-11-11T12:50:52.266Z,1004.85
2017-11-11T12:52:01.095Z,1004.88
2017-11-11T12:53:09.966Z,1004.87
2017-11-11T12:54:18.757Z,1004.87
2017-11-11T12:55:27.587Z,1004.86
2017-11-11T12:56:36.716Z,1004.83
2017-11-11T12:57:45.547Z,1004.86
2017-11-11T12:58:54.383Z,1004.8
2017-11-11T13:00:03.558Z,1004.81
2017-11-11T13:01:12.388Z,1004.8
2017-11-11T13:02:21.319Z,1004.76
2017-11-11T13:03:30.145Z,1004.69
2017-11-11T13:04:38.979Z,1004.68
2017-11-11T13:05:47.809Z,1004.64
2017-11-11T13:06:56.637Z,1004.6
2017-11-11T13:08:05.615Z,1004.63
2017-11-11T13:09:14.444Z,1004.65
2017-11-11T13:10:23.274Z,1004.61
2017-11-11T13:11:32.104Z,1004.63
2017-11-11T13:12:40.933Z,1004.61
2017-11-11T13:13:49.763Z,1004.65
2017-11-11T13:14:58.595Z,1004.64
2017-11-11T13:16:07.433Z,1004.64
2017-11-11T13:17:16.603Z,1004.61
2017-11-11T13:18:25.777Z,1004.59
2017-11-11T13:19:35.171Z,1004.61
2017-11-11T13:20:44.003Z,1004.57
2017-11-11T13:21:52.834Z,1004.5
2017-11-11T13:23:01.665Z,1004.46
2017-11-11T13:24:10.496Z,1004.49
2017-11-11T13:25:19.432Z,1004.43
2017-11-11T13:26:28.256Z,1004.49
2017-11-11T13:27:37.433Z,1004.5
2017-11-11T13:28:46.264Z,1004.44
2017-11-11T13:29:55.095Z,1004.45
2017-11-11T13:31:04.187Z,1004.43
2017-11-11T13:32:13.006Z,1004.43
2017-11-11T13:33:21.837Z,1004.4
2017-11-11T13:34:30.667Z,1004.42
2017-11-11T13:35:39.499Z,1004.36
2017-11-11T13:36:48.584Z,1004.33
2017-11-11T13:37:57.414Z,1004.39
2017-11-11T13:39:06.245Z,1004.33
2017-11-11T13:40:15.075Z,1004.33
2017-11-11T13:41:23.906Z,1004.35
2017-11-11T13:42:32.837Z,1004.31
2017-11-11T13:43:41.669Z,1004.3
2017-11-11T13:44:50.495Z,1004.34
2017-11-11T13:45:59.328Z,1004.32
2017-11-11T13:47:08.160Z,1004.35
2017-11-11T13:48:17.091Z,1004.39
2017-11-11T13:49:25.922Z,1004.39
2017-11-11T13:50:34.754Z,1004.46
2017-11-11T13:51:43.583Z,1004.4
2017-11-11T13:52:52.413Z,1004.44
2017-11-11T13:54:01.644Z,1004.39
2017-11-11T13:55:10.823Z,1004.46
2017-11-11T13:56:19.998Z,1004.49